Time;durP1;ratioP1;P1;durP2;ratioP2;P2;SDS_P1;SDS_P2;PMS_P1;PMS_P2;Temp;Humidity;BMP_temperature;BMP_pressure;BME280_temperature;BME280_humidity;BME280_pressure;Samples;Min_cycle;Max_cycle;Signal;HPM_P1;HPM_P2
2024/01/11 00:01:48;;;;;;;30.23;18.40;;;4.60;91.90;;;;;;5090588;28;20208;-80
2024/01/11 00:04:16;;;;;;;29.17;18.43;;;4.60;91.90;;;;;;5096372;28;20234;-80
2024/01/11 00:06:44;;;;;;;30.17;18.23;;;4.60;92.00;;;;;;5110521;28;20196;-82
2024/01/11 00:09:12;;;;;;;28.33;17.60;;;4.50;92.00;;;;;;5088607;28;20208;-80
2024/01/11 00:11:39;;;;;;;26.97;16.90;;;4.50;92.00;;;;;;5116670;27;20205;-81
2024/01/11 00:14:07;;;;;;;28.13;16.97;;;4.60;92.10;;;;;;5067781;28;20205;-80
2024/01/11 00:16:34;;;;;;;28.60;18.03;;;4.50;92.10;;;;;;5082437;28;20572;-81
2024/01/11 00:19:02;;;;;;;27.73;16.87;;;4.50;92.00;;;;;;5092877;28;20192;-79
2024/01/11 00:21:30;;;;;;;30.63;17.63;;;4.50;91.90;;;;;;5087138;28;20216;-80
2024/01/11 00:23:57;;;;;;;31.03;18.37;;;4.50;91.80;;;;;;5083430;28;20219;-80
2024/01/11 00:26:24;;;;;;;28.17;17.33;;;4.50;91.90;;;;;;5091782;28;20193;-80
2024/01/11 00:28:52;;;;;;;26.80;16.20;;;4.50;91.90;;;;;;5093667;28;20194;-80
2024/01/11 00:31:20;;;;;;;24.60;15.40;;;4.50;91.90;;;;;;5091521;28;20205;-80
2024/01/11 00:33:47;;;;;;;27.27;17.10;;;4.50;91.90;;;;;;5094303;28;20203;-81
2024/01/11 00:36:22;;;;;;;31.03;16.83;;;4.40;91.90;;;;;;5083394;28;20551;-80
2024/01/11 00:38:49;;;;;;;28.97;15.73;;;4.40;91.90;;;;;;5086499;28;20308;-80
2024/01/11 00:41:17;;;;;;;24.87;15.53;;;4.40;91.90;;;;;;5105500;28;20192;-80
2024/01/11 00:43:45;;;;;;;26.00;15.67;;;4.40;91.90;;;;;;5082387;28;20211;-80
2024/01/11 00:46:12;;;;;;;22.27;14.97;;;4.30;92.00;;;;;;5083256;28;20250;-81
2024/01/11 00:48:39;;;;;;;28.50;16.47;;;4.40;92.00;;;;;;5085139;28;20271;-81
2024/01/11 00:51:07;;;;;;;27.60;16.47;;;4.30;92.10;;;;;;5065889;28;20218;-81
2024/01/11 00:53:35;;;;;;;24.23;15.90;;;4.30;92.10;;;;;;5090630;28;20192;-80
2024/01/11 00:56:03;;;;;;;28.80;16.87;;;4.30;92.10;;;;;;5087539;28;20196;-80
2024/01/11 00:58:30;;;;;;;25.97;16.27;;;4.30;92.00;;;;;;5078093;28;20530;-80
2024/01/11 01:00:58;;;;;;;28.70;15.97;;;4.30;92.00;;;;;;5086167;28;20193;-80
2024/01/11 01:03:26;;;;;;;31.27;15.77;;;4.20;92.00;;;;;;5078379;28;20208;-81
2024/01/11 01:05:53;;;;;;;27.20;16.80;;;4.20;92.00;;;;;;5084417;28;20219;-81
2024/01/11 01:08:21;;;;;;;26.90;16.63;;;4.20;92.00;;;;;;5083315;28;20293;-81
2024/01/11 01:10:48;;;;;;;24.17;15.90;;;4.20;92.10;;;;;;5085891;28;20702;-80
2024/01/11 01:13:16;;;;;;;26.27;16.33;;;4.20;92.20;;;;;;5085105;28;20624;-80
2024/01/11 01:15:44;;;;;;;27.87;17.23;;;4.20;92.20;;;;;;5091315;28;20646;-81
2024/01/11 01:18:11;;;;;;;25.37;16.47;;;4.20;92.20;;;;;;5084329;28;20227;-80
2024/01/11 01:20:39;;;;;;;28.27;16.17;;;4.20;92.20;;;;;;5089056;28;20204;-81
2024/01/11 01:23:06;;;;;;;24.97;16.67;;;4.10;92.20;;;;;;5086103;28;20206;-81
2024/01/11 01:25:34;;;;;;;31.87;17.57;;;4.20;92.30;;;;;;5083622;28;20224;-80
2024/01/11 01:28:01;;;;;;;29.07;16.93;;;4.20;92.40;;;;;;5091446;28;20207;-82
2024/01/11 01:30:29;;;;;;;26.73;17.63;;;4.20;92.40;;;;;;5091570;28;20201;-81
2024/01/11 01:32:57;;;;;;;25.43;16.27;;;4.20;92.40;;;;;;5091487;28;20201;-80
2024/01/11 01:35:25;;;;;;;30.97;17.77;;;4.20;92.30;;;;;;5085952;28;20210;-80
2024/01/11 01:37:53;;;;;;;28.40;17.10;;;4.20;92.30;;;;;;5099966;28;20200;-81
2024/01/11 01:40:21;;;;;;;31.23;17.60;;;4.20;92.30;;;;;;5088729;28;20334;-81
2024/01/11 01:42:49;;;;;;;26.33;17.07;;;4.20;92.40;;;;;;5098824;28;20193;-80
2024/01/11 01:45:17;;;;;;;30.80;17.37;;;4.20;92.30;;;;;;5094011;28;20300;-80
2024/01/11 01:47:45;;;;;;;30.40;18.50;;;4.20;92.20;;;;;;5074771;28;20579;-80
2024/01/11 01:50:13;;;;;;;33.07;18.40;;;4.20;92.20;;;;;;5095877;28;20196;-80
2024/01/11 01:52:44;;;;;;;32.33;17.87;;;4.20;92.10;;;;;;5081726;28;20209;-80
2024/01/11 01:55:14;;;;;;;32.73;16.97;;;4.10;92.10;;;;;;5086228;28;20299;-79
2024/01/11 01:57:43;;;;;;;25.93;17.27;;;4.10;92.00;;;;;;5091261;28;20243;-80
2024/01/11 02:00:12;;;;;;;27.70;17.27;;;4.10;91.90;;;;;;5087252;28;20206;-80
2024/01/11 02:02:42;;;;;;;27.57;18.60;;;4.10;92.00;;;;;;5083044;28;20203;-80
2024/01/11 02:05:12;;;;;;;30.93;17.73;;;4.00;92.00;;;;;;5098749;28;20669;-80
2024/01/11 02:07:41;;;;;;;36.57;18.37;;;4.00;92.10;;;;;;5085724;28;20200;-81
2024/01/11 02:10:08;;;;;;;30.20;17.60;;;4.00;92.20;;;;;;5084777;27;20220;-80
2024/01/11 02:12:37;;;;;;;29.50;17.97;;;4.00;92.20;;;;;;5093092;28;20282;-79
2024/01/11 02:15:05;;;;;;;32.63;19.37;;;4.00;92.20;;;;;;5071748;28;20195;-80
2024/01/11 02:17:33;;;;;;;28.67;17.57;;;4.00;92.30;;;;;;5073509;28;20214;-81
2024/01/11 02:20:03;;;;;;;32.50;18.10;;;4.00;92.30;;;;;;5092123;28;20254;-80
2024/01/11 02:22:41;;;;;;;29.40;18.17;;;4.00;92.40;;;;;;5069000;28;20195;-80
2024/01/11 02:25:09;;;;;;;32.63;17.03;;;3.90;92.40;;;;;;5087851;28;20644;-80
2024/01/11 02:27:49;;;;;;;29.90;17.03;;;4.00;92.30;;;;;;5090848;28;20497;-80
2024/01/11 02:30:17;;;;;;;27.40;16.93;;;3.90;92.10;;;;;;5103965;28;20211;-80
2024/01/11 02:32:47;;;;;;;26.43;18.60;;;3.90;92.10;;;;;;5075492;28;21248;-80
2024/01/11 02:35:16;;;;;;;29.93;19.13;;;3.90;92.20;;;;;;5083330;27;20254;-80
2024/01/11 02:37:44;;;;;;;33.90;19.57;;;3.90;92.20;;;;;;5098054;28;20218;-80
2024/01/11 02:40:13;;;;;;;27.37;17.80;;;3.90;92.20;;;;;;5087862;28;20293;-81
2024/01/11 02:42:41;;;;;;;31.07;18.40;;;3.90;92.30;;;;;;5085669;28;20266;-80
2024/01/11 02:45:11;;;;;;;28.20;18.47;;;3.90;92.30;;;;;;5102279;28;20215;-80
2024/01/11 02:47:39;;;;;;;31.63;18.90;;;3.80;92.30;;;;;;5077612;28;20200;-80
2024/01/11 02:50:08;;;;;;;30.40;17.23;;;3.80;92.40;;;;;;5079010;28;20214;-80
2024/01/11 02:52:35;;;;;;;34.70;18.13;;;3.80;92.50;;;;;;5102573;28;20200;-80
2024/01/11 02:55:03;;;;;;;27.53;18.07;;;3.80;92.50;;;;;;5109820;27;20200;-80
2024/01/11 02:57:30;;;;;;;31.17;17.30;;;3.80;92.60;;;;;;5078327;28;20639;-80
2024/01/11 02:59:58;;;;;;;34.57;18.17;;;3.80;92.60;;;;;;5095005;28;20199;-80
2024/01/11 03:02:25;;;;;;;34.07;18.37;;;3.80;92.70;;;;;;5086445;28;20276;-80
2024/01/11 03:04:53;;;;;;;29.03;17.53;;;3.80;92.70;;;;;;5095057;28;20215;-80
2024/01/11 03:07:20;;;;;;;34.50;18.17;;;3.80;92.70;;;;;;5090616;28;20215;-80
2024/01/11 03:09:47;;;;;;;29.97;17.83;;;3.80;92.80;;;;;;5085932;28;20298;-80
2024/01/11 03:12:15;;;;;;;32.53;18.77;;;3.80;92.80;;;;;;5087008;28;20194;-80
2024/01/11 03:14:42;;;;;;;31.30;18.10;;;3.80;92.80;;;;;;5090083;28;20865;-80
2024/01/11 03:17:10;;;;;;;30.10;18.13;;;3.80;92.80;;;;;;5092320;28;20228;-80
2024/01/11 03:19:41;;;;;;;25.40;17.90;;;3.70;93.10;;;;;;5077208;28;20226;-80
2024/01/11 03:22:08;;;;;;;28.73;18.17;;;3.70;92.80;;;;;;5097273;28;20231;-80
2024/01/11 03:24:39;;;;;;;27.87;18.80;;;3.70;92.80;;;;;;5086685;28;20273;-80
2024/01/11 03:27:06;;;;;;;25.87;17.10;;;3.60;92.80;;;;;;5096422;28;20218;-80
2024/01/11 03:29:33;;;;;;;30.93;18.63;;;3.60;92.90;;;;;;5096748;28;20295;-80
2024/01/11 03:32:01;;;;;;;30.60;17.67;;;3.60;92.90;;;;;;5086218;28;20235;-79
2024/01/11 03:34:29;;;;;;;29.17;18.80;;;3.50;92.90;;;;;;5105840;28;20259;-80
2024/01/11 03:36:56;;;;;;;29.93;18.23;;;3.50;92.90;;;;;;5083685;28;20200;-79
2024/01/11 03:39:25;;;;;;;30.03;18.97;;;3.50;92.90;;;;;;5090372;28;20238;-80
2024/01/11 03:41:53;;;;;;;30.27;18.07;;;3.50;92.80;;;;;;5073699;28;20191;-80
2024/01/11 03:44:22;;;;;;;29.17;17.40;;;3.50;92.80;;;;;;5092326;28;20615;-81
2024/01/11 03:46:49;;;;;;;27.10;17.23;;;3.40;92.80;;;;;;5106424;28;20255;-80
2024/01/11 03:49:17;;;;;;;24.80;16.30;;;3.40;92.70;;;;;;5075571;28;20627;-80
2024/01/11 03:51:45;;;;;;;26.90;17.50;;;3.30;92.70;;;;;;5085872;28;20223;-80
2024/01/11 03:54:12;;;;;;;28.53;17.20;;;3.30;92.80;;;;;;5084723;28;20195;-80
2024/01/11 03:56:40;;;;;;;28.33;17.97;;;3.30;92.90;;;;;;5087220;27;20560;-79
2024/01/11 03:59:07;;;;;;;29.47;17.57;;;3.30;92.90;;;;;;5091920;28;20544;-80
2024/01/11 04:01:42;;;;;;;28.97;18.37;;;3.20;92.90;;;;;;5071341;28;20237;-80
2024/01/11 04:04:12;;;;;;;29.40;17.60;;;3.20;92.90;;;;;;5088560;28;20208;-81
2024/01/11 04:06:39;;;;;;;30.00;17.77;;;3.20;93.00;;;;;;5083199;28;20226;-80
2024/01/11 04:09:07;;;;;;;26.50;18.80;;;3.10;93.00;;;;;;5087459;28;20201;-80
2024/01/11 04:11:35;;;;;;;30.17;18.37;;;3.00;93.10;;;;;;5092147;28;20211;-80
2024/01/11 04:14:03;;;;;;;33.10;18.10;;;3.00;93.10;;;;;;5073607;28;20271;-80
2024/01/11 04:16:31;;;;;;;29.57;18.07;;;2.90;93.10;;;;;;5079887;28;20226;-79
2024/01/11 04:18:59;;;;;;;28.43;17.87;;;2.90;93.20;;;;;;5086560;28;20309;-80
2024/01/11 04:21:31;;;;;;;27.57;17.40;;;2.90;93.30;;;;;;5093322;28;20207;-80
2024/01/11 04:23:58;;;;;;;29.10;17.03;;;2.80;93.30;;;;;;5076448;28;20268;-80
2024/01/11 04:26:26;;;;;;;33.33;18.23;;;2.80;93.30;;;;;;5084510;28;20559;-79
2024/01/11 04:28:54;;;;;;;30.73;17.70;;;2.80;93.20;;;;;;5089287;28;20547;-80
2024/01/11 04:31:26;;;;;;;30.87;17.53;;;2.70;93.20;;;;;;5070382;28;20204;-79
2024/01/11 04:33:54;;;;;;;31.73;18.63;;;2.70;93.30;;;;;;5090128;28;20210;-80
2024/01/11 04:36:22;;;;;;;32.23;18.47;;;2.60;93.40;;;;;;5104464;28;20203;-80
2024/01/11 04:38:50;;;;;;;32.87;18.83;;;2.60;93.50;;;;;;5079713;28;20693;-80
2024/01/11 04:41:18;;;;;;;32.80;19.40;;;2.50;93.60;;;;;;5075620;28;20214;-80
2024/01/11 04:43:45;;;;;;;30.80;18.07;;;2.50;93.70;;;;;;5093420;28;20211;-80
2024/01/11 04:46:17;;;;;;;28.13;18.93;;;2.50;93.70;;;;;;5089528;28;20222;-80
2024/01/11 04:48:45;;;;;;;32.33;18.80;;;2.50;93.80;;;;;;5073817;28;20261;-80
2024/01/11 04:51:15;;;;;;;29.73;18.53;;;2.50;93.90;;;;;;5078727;28;20208;-80
2024/01/11 04:53:44;;;;;;;29.33;17.90;;;2.50;93.90;;;;;;5079298;28;20198;-80
2024/01/11 04:56:15;;;;;;;29.90;18.23;;;2.50;94.00;;;;;;5090345;28;20209;-80
2024/01/11 04:58:45;;;;;;;29.83;18.93;;;2.40;94.00;;;;;;5096413;28;20207;-80
2024/01/11 05:01:13;;;;;;;32.03;18.90;;;2.40;94.00;;;;;;5085639;28;20213;-79
2024/01/11 05:03:45;;;;;;;32.60;18.80;;;2.40;94.10;;;;;;5100283;28;20195;-79
2024/01/11 05:06:21;;;;;;;33.47;18.40;;;2.30;94.10;;;;;;5077315;28;20231;-80
2024/01/11 05:08:52;;;;;;;33.90;18.43;;;2.30;94.20;;;;;;5088342;28;20204;-80
2024/01/11 05:11:21;;;;;;;29.53;17.90;;;2.30;94.20;;;;;;5096014;28;20636;-80
2024/01/11 05:13:49;;;;;;;30.80;18.03;;;2.30;94.30;;;;;;5090813;28;20199;-80
2024/01/11 05:16:25;;;;;;;30.30;18.53;;;2.30;94.30;;;;;;5096135;28;20551;-79
2024/01/11 05:18:55;;;;;;;30.17;19.03;;;2.30;94.30;;;;;;5085108;28;20294;-80
2024/01/11 05:21:24;;;;;;;29.70;17.50;;;2.30;94.30;;;;;;5092516;28;20311;-80
2024/01/11 05:23:52;;;;;;;29.07;17.50;;;2.30;94.30;;;;;;5087533;28;20273;-80
2024/01/11 05:26:20;;;;;;;34.93;19.07;;;2.30;94.40;;;;;;5080634;28;20216;-80
2024/01/11 05:28:49;;;;;;;27.13;17.57;;;2.30;94.40;;;;;;5085177;28;20210;-79
2024/01/11 05:31:17;;;;;;;25.50;16.57;;;2.30;94.30;;;;;;5081637;28;20211;-80
2024/01/11 05:33:46;;;;;;;34.97;17.17;;;2.20;94.20;;;;;;5087060;28;20208;-80
2024/01/11 05:36:15;;;;;;;32.27;17.33;;;2.20;94.20;;;;;;5091202;28;20773;-79
2024/01/11 05:38:43;;;;;;;31.30;17.47;;;2.20;94.30;;;;;;5076110;28;20261;-79
2024/01/11 05:41:11;;;;;;;37.53;17.93;;;2.20;94.30;;;;;;5082458;28;20655;-79
2024/01/11 05:43:40;;;;;;;28.97;17.13;;;2.20;94.40;;;;;;5094188;28;20225;-79
2024/01/11 05:46:08;;;;;;;26.50;17.87;;;2.20;94.40;;;;;;5096654;28;20215;-80
2024/01/11 05:48:36;;;;;;;27.07;17.27;;;2.10;94.50;;;;;;5090316;28;20522;-80
2024/01/11 05:51:04;;;;;;;36.40;17.63;;;2.10;94.50;;;;;;5081217;28;20196;-80
2024/01/11 05:53:35;;;;;;;27.27;17.27;;;2.10;94.50;;;;;;5091579;28;20562;-80
2024/01/11 05:56:08;;;;;;;25.53;16.07;;;2.10;94.50;;;;;;5085127;28;20298;-80
2024/01/11 05:58:40;;;;;;;27.27;16.87;;;2.10;94.50;;;;;;5070665;28;20270;-81
2024/01/11 06:01:10;;;;;;;26.87;16.47;;;2.10;94.50;;;;;;5092063;28;20218;-79
2024/01/11 06:03:39;;;;;;;26.53;16.47;;;2.10;94.50;;;;;;5090398;28;20283;-81
2024/01/11 06:06:07;;;;;;;26.07;16.17;;;2.00;94.50;;;;;;5079379;28;20213;-81
2024/01/11 06:08:35;;;;;;;30.03;16.23;;;2.00;94.50;;;;;;5102945;28;20208;-81
2024/01/11 06:11:03;;;;;;;27.60;16.47;;;2.00;94.60;;;;;;5092281;28;20199;-80
2024/01/11 06:13:31;;;;;;;26.07;16.13;;;2.00;94.50;;;;;;5089466;28;20203;-79
2024/01/11 06:15:59;;;;;;;28.60;16.50;;;2.00;94.60;;;;;;5077910;28;20197;-80
2024/01/11 06:18:26;;;;;;;28.13;17.10;;;2.00;94.60;;;;;;5091460;28;20290;-78
2024/01/11 06:20:53;;;;;;;33.23;16.17;;;1.90;94.60;;;;;;5096489;28;20256;-79
2024/01/11 06:23:23;;;;;;;29.13;18.53;;;1.90;94.60;;;;;;5072122;28;20209;-78
2024/01/11 06:25:51;;;;;;;30.53;17.47;;;1.90;94.60;;;;;;5084224;28;20216;-79
2024/01/11 06:28:18;;;;;;;34.57;17.97;;;1.90;94.60;;;;;;5090044;28;20199;-80
2024/01/11 06:30:46;;;;;;;31.70;18.57;;;1.90;94.60;;;;;;5064102;28;20692;-79
2024/01/11 06:33:13;;;;;;;30.27;18.87;;;1.90;94.60;;;;;;5088478;28;20299;-80
2024/01/11 06:35:42;;;;;;;38.10;20.03;;;1.90;94.70;;;;;;5088298;28;20208;-79
2024/01/11 06:38:09;;;;;;;31.93;17.60;;;1.80;94.70;;;;;;5089426;28;20207;-79
2024/01/11 06:40:37;;;;;;;32.00;17.77;;;1.80;94.80;;;;;;5090092;28;20334;-79
2024/01/11 06:43:05;;;;;;;30.40;18.50;;;1.80;94.80;;;;;;5091014;28;20205;-80
2024/01/11 06:45:33;;;;;;;34.20;18.57;;;1.80;94.80;;;;;;5087420;28;20230;-78
2024/01/11 06:48:06;;;;;;;34.10;19.47;;;1.80;94.80;;;;;;5067017;28;20221;-78
2024/01/11 06:50:34;;;;;;;39.13;20.30;;;1.80;94.80;;;;;;5088987;28;20713;-79
2024/01/11 06:53:02;;;;;;;30.20;17.87;;;1.80;94.80;;;;;;5092212;28;20200;-79
2024/01/11 06:55:30;;;;;;;29.27;18.17;;;1.80;94.80;;;;;;5086333;28;20216;-79
2024/01/11 06:57:59;;;;;;;30.70;16.93;;;1.80;94.80;;;;;;5087649;28;20202;-80
2024/01/11 07:00:26;;;;;;;34.10;18.30;;;1.80;94.80;;;;;;5084758;28;20565;-79
2024/01/11 07:02:57;;;;;;;32.60;18.77;;;1.80;94.90;;;;;;5075492;28;20204;-79
2024/01/11 07:05:24;;;;;;;29.40;17.37;;;1.80;94.90;;;;;;5084334;28;20204;-80
2024/01/11 07:07:53;;;;;;;33.60;18.83;;;1.80;94.90;;;;;;5073806;28;20530;-79
2024/01/11 07:10:21;;;;;;;27.23;17.80;;;1.80;94.90;;;;;;5090264;28;20585;-80
2024/01/11 07:12:49;;;;;;;27.60;18.40;;;1.80;94.80;;;;;;5072705;28;20633;-80
2024/01/11 07:15:17;;;;;;;29.00;18.13;;;1.80;94.80;;;;;;5085394;28;20294;-80
2024/01/11 07:17:44;;;;;;;31.37;17.53;;;1.80;94.90;;;;;;5084330;28;20206;-80
2024/01/11 07:20:13;;;;;;;32.23;17.97;;;1.80;94.90;;;;;;5086897;28;20296;-80
2024/01/11 07:22:42;;;;;;;30.43;18.10;;;1.80;94.90;;;;;;5069369;28;20637;-81
2024/01/11 07:25:10;;;;;;;28.03;16.33;;;1.80;94.90;;;;;;5087372;28;20266;-80
2024/01/11 07:27:38;;;;;;;28.97;18.23;;;1.90;94.90;;;;;;5068172;28;20949;-81
2024/01/11 07:30:06;;;;;;;30.07;17.97;;;1.90;94.90;;;;;;5080647;28;20302;-80
2024/01/11 07:32:34;;;;;;;29.77;18.13;;;1.90;94.90;;;;;;5086470;28;20203;-80
2024/01/11 07:35:03;;;;;;;29.20;19.40;;;1.90;94.90;;;;;;5088481;28;20204;-80
2024/01/11 07:37:34;;;;;;;28.17;17.63;;;1.90;94.90;;;;;;5070254;28;20289;-80
2024/01/11 07:40:03;;;;;;;31.40;17.80;;;1.90;94.80;;;;;;5088201;28;20237;-79
2024/01/11 07:42:32;;;;;;;33.33;18.73;;;2.00;94.90;;;;;;5082601;28;20220;-80
2024/01/11 07:45:03;;;;;;;34.17;18.70;;;2.00;94.90;;;;;;5089772;28;20215;-81
2024/01/11 07:47:31;;;;;;;29.67;17.93;;;2.10;94.90;;;;;;5084441;28;20322;-80
2024/01/11 07:49:59;;;;;;;31.40;18.13;;;2.10;95.00;;;;;;5085777;28;20274;-81
2024/01/11 07:52:27;;;;;;;29.57;18.07;;;2.20;94.90;;;;;;5084576;28;20204;-80
2024/01/11 07:54:54;;;;;;;31.00;18.00;;;2.20;94.80;;;;;;5091695;28;20838;-80
2024/01/11 07:57:22;;;;;;;27.80;17.37;;;2.30;94.80;;;;;;5092205;28;20212;-80
2024/01/11 07:59:50;;;;;;;30.87;17.47;;;2.30;94.80;;;;;;5077766;28;20218;-80
2024/01/11 08:02:18;;;;;;;27.27;17.40;;;2.40;94.80;;;;;;5087613;28;20211;-80
2024/01/11 08:04:48;;;;;;;28.40;16.00;;;2.40;94.70;;;;;;5085394;28;20284;-80
2024/01/11 08:07:17;;;;;;;27.23;16.53;;;2.50;94.70;;;;;;5088283;28;20329;-80
2024/01/11 08:09:45;;;;;;;25.43;15.73;;;2.60;94.60;;;;;;5075651;28;20258;-80
2024/01/11 08:12:17;;;;;;;29.47;17.53;;;2.60;94.60;;;;;;5083362;28;20589;-80
2024/01/11 08:14:46;;;;;;;27.43;16.63;;;2.70;94.50;;;;;;5064767;28;20200;-80
2024/01/11 08:17:14;;;;;;;29.17;17.10;;;2.80;94.50;;;;;;5083666;28;20220;-80
2024/01/11 08:19:42;;;;;;;28.43;16.80;;;2.90;94.50;;;;;;5083730;28;20200;-80
2024/01/11 08:22:11;;;;;;;26.37;16.77;;;2.90;94.40;;;;;;5087557;28;20212;-81
2024/01/11 08:24:39;;;;;;;29.57;17.57;;;3.00;94.40;;;;;;5084186;28;20218;-80
2024/01/11 08:27:09;;;;;;;27.50;17.20;;;3.10;94.30;;;;;;5066140;28;20263;-81
2024/01/11 08:29:37;;;;;;;30.10;16.07;;;3.20;94.20;;;;;;5083494;28;20194;-80
2024/01/11 08:32:06;;;;;;;25.70;16.07;;;3.20;94.10;;;;;;5071639;28;20228;-81
2024/01/11 08:34:54;;;;;;;30.30;17.70;;;3.30;94.00;;;;;;5082385;28;20216;-81
2024/01/11 08:37:23;;;;;;;26.17;17.23;;;3.40;94.00;;;;;;5085135;28;20208;-80
2024/01/11 08:39:50;;;;;;;29.67;16.40;;;3.40;93.90;;;;;;5091354;28;20246;-81
2024/01/11 08:42:19;;;;;;;26.67;16.97;;;3.50;93.80;;;;;;5091694;28;20216;-81
2024/01/11 08:44:47;;;;;;;31.50;17.87;;;3.60;93.70;;;;;;5090239;28;20216;-80
2024/01/11 08:47:15;;;;;;;27.10;16.57;;;3.70;93.70;;;;;;5077747;28;20229;-81
2024/01/11 08:49:43;;;;;;;24.10;17.00;;;3.80;93.60;;;;;;5096358;28;20413;-81
2024/01/11 08:52:12;;;;;;;28.20;16.63;;;3.80;93.50;;;;;;5076302;28;20208;-81
2024/01/11 08:54:39;;;;;;;26.50;17.50;;;3.90;93.40;;;;;;5095557;28;20632;-80
2024/01/11 08:57:07;;;;;;;25.60;16.10;;;4.00;93.40;;;;;;5085403;28;20219;-80
2024/01/11 08:59:35;;;;;;;25.53;17.43;;;4.10;93.30;;;;;;5081682;28;20219;-82
2024/01/11 09:02:03;;;;;;;25.57;17.33;;;4.20;93.20;;;;;;5074348;28;20255;-81
2024/01/11 09:04:42;;;;;;;24.37;16.50;;;4.30;93.20;;;;;;5086345;28;20730;-80
2024/01/11 09:07:10;;;;;;;25.87;17.37;;;4.40;93.00;;;;;;5085303;28;20220;-81
2024/01/11 09:09:41;;;;;;;28.13;19.07;;;4.40;92.90;;;;;;5093299;28;20310;-81
2024/01/11 09:12:20;;;;;;;27.73;16.90;;;4.50;92.90;;;;;;5087853;28;20262;-81
2024/01/11 09:14:48;;;;;;;27.30;17.20;;;4.60;92.80;;;;;;5085403;28;20304;-80
2024/01/11 09:17:18;;;;;;;27.80;16.57;;;4.70;92.60;;;;;;5080964;28;20198;-81
2024/01/11 09:19:46;;;;;;;24.47;15.93;;;4.80;92.50;;;;;;5079312;28;20202;-81
2024/01/11 09:22:14;;;;;;;24.07;16.07;;;4.90;92.40;;;;;;5084850;28;20638;-81
2024/01/11 09:24:42;;;;;;;28.73;16.97;;;4.90;92.20;;;;;;5086117;28;20251;-81
2024/01/11 09:27:13;;;;;;;31.03;16.80;;;5.00;92.10;;;;;;5088153;28;20229;-81
2024/01/11 09:29:47;;;;;;;25.00;16.97;;;5.10;92.00;;;;;;5088413;28;20213;-81
2024/01/11 09:32:18;;;;;;;27.87;17.30;;;5.20;91.90;;;;;;5084488;28;20193;-81
2024/01/11 09:34:49;;;;;;;23.50;17.23;;;5.30;92.20;;;;;;5074717;28;20208;-81
2024/01/11 09:37:18;;;;;;;25.13;17.43;;;5.30;91.80;;;;;;5088283;28;20203;-81
2024/01/11 09:39:46;;;;;;;24.97;16.43;;;5.40;91.60;;;;;;5095386;28;20248;-81
2024/01/11 09:42:13;;;;;;;32.90;18.20;;;5.50;91.50;;;;;;5093664;28;20605;-82
2024/01/11 09:44:42;;;;;;;24.00;16.53;;;5.60;91.40;;;;;;5092577;28;20236;-81
2024/01/11 09:47:11;;;;;;;24.67;17.00;;;5.60;91.30;;;;;;5091205;28;20225;-81
2024/01/11 09:49:44;;;;;;;22.87;16.90;;;5.70;91.20;;;;;;5095884;28;20228;-81
2024/01/11 09:52:16;;;;;;;25.93;16.70;;;5.70;91.10;;;;;;5090684;28;20579;-81
2024/01/11 09:54:45;;;;;;;27.33;15.93;;;5.80;91.00;;;;;;5091682;28;20280;-81
2024/01/11 09:57:21;;;;;;;28.97;16.73;;;5.90;91.00;;;;;;5092773;28;20216;-81
2024/01/11 09:59:51;;;;;;;25.60;16.83;;;6.00;90.90;;;;;;5083179;28;20240;-81
2024/01/11 10:02:19;;;;;;;25.97;15.70;;;6.10;90.90;;;;;;5083334;28;20275;-81
2024/01/11 10:04:52;;;;;;;25.17;16.30;;;6.20;90.80;;;;;;5085714;28;20304;-81
2024/01/11 10:07:22;;;;;;;25.70;16.43;;;6.20;90.60;;;;;;5080936;28;20229;-81
2024/01/11 10:09:50;;;;;;;29.77;16.03;;;6.30;90.50;;;;;;5074348;28;20208;-81
2024/01/11 10:12:20;;;;;;;28.87;15.30;;;6.40;90.40;;;;;;5091206;28;20228;-82
2024/01/11 10:14:47;;;;;;;24.67;15.23;;;6.50;90.20;;;;;;5087762;28;20255;-81
2024/01/11 10:17:15;;;;;;;29.20;15.33;;;6.50;90.10;;;;;;5088451;28;20236;-82
2024/01/11 10:19:54;;;;;;;26.40;16.50;;;6.50;89.80;;;;;;5092670;28;20205;-81
2024/01/11 10:22:26;;;;;;;23.07;15.80;;;6.60;89.60;;;;;;5075433;28;20205;-81
2024/01/11 10:25:10;;;;;;;26.37;16.13;;;6.70;89.60;;;;;;5090575;28;20258;-81
2024/01/11 10:27:46;;;;;;;23.77;15.70;;;6.70;89.20;;;;;;5086639;28;20221;-81
2024/01/11 10:30:16;;;;;;;24.03;15.90;;;6.80;89.20;;;;;;5087910;28;20222;-81
2024/01/11 10:32:46;;;;;;;23.00;16.33;;;6.80;89.00;;;;;;5073094;28;20205;-81
2024/01/11 10:35:16;;;;;;;20.57;15.17;;;6.90;88.80;;;;;;5089188;28;20234;-82
2024/01/11 10:37:45;;;;;;;25.47;16.03;;;7.00;88.60;;;;;;5080913;28;20216;-81
2024/01/11 10:40:14;;;;;;;23.37;16.43;;;7.00;88.30;;;;;;5089818;28;20303;-81
2024/01/11 10:42:49;;;;;;;28.90;14.80;;;7.10;88.00;;;;;;5087598;28;20257;-82
2024/01/11 10:45:18;;;;;;;25.83;15.60;;;7.10;87.40;;;;;;5086411;28;20193;-81
2024/01/11 10:47:54;;;;;;;23.07;14.73;;;7.20;86.60;;;;;;5074338;28;20345;-81
2024/01/11 10:50:23;;;;;;;26.23;15.10;;;7.20;86.60;;;;;;5072446;28;20255;-82
2024/01/11 10:53:06;;;;;;;24.77;13.90;;;7.20;86.30;;;;;;5086775;28;20205;-82
2024/01/11 10:55:35;;;;;;;22.80;14.33;;;7.30;86.30;;;;;;5088931;28;20202;-82
2024/01/11 10:58:07;;;;;;;24.90;14.23;;;7.40;85.50;;;;;;5077318;28;20266;-82
2024/01/11 11:00:35;;;;;;;21.13;13.60;;;7.40;82.90;;;;;;5073389;28;20213;-82
2024/01/11 11:03:08;;;;;;;21.63;14.53;;;7.30;81.30;;;;;;5088769;28;20251;-83
2024/01/11 11:05:41;;;;;;;22.40;14.57;;;7.30;80.30;;;;;;5068721;28;20215;-82
2024/01/11 11:08:10;;;;;;;18.60;12.77;;;7.30;81.50;;;;;;5079304;28;20229;-82
2024/01/11 11:10:41;;;;;;;22.07;13.97;;;7.30;81.50;;;;;;5089223;28;20295;-81
2024/01/11 11:13:15;;;;;;;19.73;13.77;;;7.40;80.30;;;;;;5084101;28;20198;-82
2024/01/11 11:15:47;;;;;;;24.00;15.40;;;7.30;79.30;;;;;;5072890;28;20202;-81
2024/01/11 11:18:15;;;;;;;22.33;14.17;;;7.40;80.00;;;;;;5085468;28;20201;-82
2024/01/11 11:20:43;;;;;;;22.37;14.67;;;7.40;80.30;;;;;;5071911;28;20216;-82
2024/01/11 11:23:17;;;;;;;21.27;14.33;;;7.50;79.40;;;;;;5069243;28;20228;-82
2024/01/11 11:25:49;;;;;;;19.87;14.30;;;7.50;79.80;;;;;;5086560;28;20654;-82
2024/01/11 11:28:18;;;;;;;24.40;14.30;;;7.60;79.20;;;;;;5082401;28;20213;-82
2024/01/11 11:30:51;;;;;;;19.40;13.37;;;7.60;79.40;;;;;;5070391;28;20317;-81
2024/01/11 11:33:26;;;;;;;23.33;13.83;;;7.70;78.40;;;;;;5072655;28;20251;-83
2024/01/11 11:35:57;;;;;;;24.57;13.47;;;7.80;78.70;;;;;;5078888;28;20201;-82
2024/01/11 11:38:31;;;;;;;21.70;14.23;;;7.80;78.00;;;;;;5076825;28;20201;-81
2024/01/11 11:41:01;;;;;;;24.13;14.30;;;7.90;77.90;;;;;;5068290;28;20207;-82
2024/01/11 11:43:31;;;;;;;26.13;14.83;;;7.90;78.30;;;;;;5049154;28;20578;-82
2024/01/11 11:46:07;;;;;;;23.40;14.50;;;8.00;78.70;;;;;;5042019;28;20343;-81
2024/01/11 11:48:41;;;;;;;20.67;13.80;;;8.10;76.60;;;;;;5054437;28;20226;-82
2024/01/11 11:51:16;;;;;;;23.00;13.83;;;8.00;75.90;;;;;;5042756;28;20196;-81
2024/01/11 11:53:48;;;;;;;22.40;14.27;;;8.00;75.90;;;;;;5053443;28;20204;-82
2024/01/11 11:56:22;;;;;;;21.27;14.53;;;8.10;76.70;;;;;;5060600;28;20210;-82
2024/01/11 11:58:54;;;;;;;22.57;14.70;;;8.10;75.80;;;;;;5056977;28;20631;-83
2024/01/11 12:01:23;;;;;;;23.43;13.73;;;8.10;76.40;;;;;;5057880;28;20208;-82
2024/01/11 12:03:52;;;;;;;19.73;14.17;;;8.10;75.90;;;;;;5053641;28;20673;-81
2024/01/11 12:06:24;;;;;;;22.53;14.77;;;8.20;76.50;;;;;;5060764;28;20238;-82
2024/01/11 12:08:55;;;;;;;22.63;15.07;;;8.30;77.70;;;;;;5048781;28;20222;-81
2024/01/11 12:11:25;;;;;;;23.50;14.40;;;8.40;78.40;;;;;;5064096;28;20199;-81
2024/01/11 12:13:55;;;;;;;19.33;14.30;;;8.60;76.00;;;;;;5052392;28;20198;-82
2024/01/11 12:16:26;;;;;;;23.27;15.10;;;8.60;76.00;;;;;;5048297;28;20196;-81
2024/01/11 12:18:54;;;;;;;19.73;14.70;;;8.70;76.60;;;;;;5045248;28;20202;-80
2024/01/11 12:21:22;;;;;;;22.53;15.17;;;8.80;77.10;;;;;;5065256;28;20214;-81
2024/01/11 12:23:49;;;;;;;21.03;14.83;;;8.80;77.40;;;;;;5045362;28;20229;-82
2024/01/11 12:26:21;;;;;;;23.13;15.57;;;8.90;77.30;;;;;;5067485;28;20283;-82
2024/01/11 12:28:51;;;;;;;23.57;14.07;;;9.00;76.00;;;;;;5055923;28;20273;-82
2024/01/11 12:31:22;;;;;;;17.70;13.60;;;9.00;74.80;;;;;;5057543;28;20603;-82
2024/01/11 12:33:50;;;;;;;25.33;15.73;;;9.00;73.30;;;;;;5063090;28;20206;-83
2024/01/11 12:36:20;;;;;;;20.20;14.77;;;9.00;73.20;;;;;;5052683;28;20253;-82
2024/01/11 12:38:48;;;;;;;24.60;14.97;;;9.00;74.10;;;;;;5067238;28;20213;-82
2024/01/11 12:41:21;;;;;;;23.83;15.33;;;9.00;75.10;;;;;;5085718;28;20341;-82
2024/01/11 12:43:50;;;;;;;24.60;15.93;;;9.10;75.40;;;;;;5070052;28;20638;-81
2024/01/11 12:46:18;;;;;;;25.33;16.83;;;9.10;74.30;;;;;;5077779;28;20212;-82